• Join FlightAware (Why Join?)
  • Login
  • US Flag 
08:55PM EDT


 

Airport Tracker/Info


-or-


 

Live Flight TrackerFlight Track Log ✈ CTL13 ✈ 09-Apr-2013 ✈ KBKL - KEYE

Flight Track Log - Related Links

Times and Time Zones

All times are in EDT time to prevent confusion due to time zone crossing. See the CTL13 flight status page for this flight to view local times or setup timezone preferences in your user account.

Time Position Orientation Groundspeed Altitude Reporting Facility
EDT Latitude Longitude Course Direction KTS MPH feet Rate Location/Type
06:37PM 41.5256 -81.6647 21° North 137 158 1,100  Level Cleveland Center
06:38PM 41.5672 -81.6433 21° North 157 181 2,200 900 Climbing Cleveland Center
06:39PM 41.5697 -81.5989 86° East 143 165 3,100 420 Climbing Cleveland Center
06:40PM 41.5431 -81.5486 125° Southeast 178 205 3,100  Level Cleveland Center
06:41PM 41.4933 -81.5339 167° South 165 190 3,100 120 Level Cleveland Center
06:42PM 41.4517 -81.5333 179° South 143 165 3,400 360 Climbing Cleveland Center
06:43PM 41.4158 -81.5522 202° Southwest 138 159 3,900 420 Climbing Cleveland Center
06:44PM 41.3803 -81.5850 215° Southwest 126 145 4,400 360 Climbing Cleveland Center
06:45PM 41.3611 -81.6178 232° Southwest 133 153 4,600 360 Climbing Cleveland Center
06:46PM 41.3378 -81.6561 231° Southwest 132 152 5,100 540 Climbing Cleveland Center
06:47PM 41.3167 -81.6917 232° Southwest 124 143 5,700 360 Climbing Cleveland Center
06:48PM 41.2975 -81.7244 232° Southwest 125 144 5,900 120 Climbing Cleveland Center
06:49PM 41.2742 -81.7656 233° Southwest 139 160 6,000 60 Climbing Cleveland Center
06:50PM 41.2592 -81.8178 249° West 141 162 6,100  Climbing Cleveland Center
06:51PM 41.2461 -81.8644 250° West 137 158 6,000  Descending Cleveland Center
06:52PM 41.2331 -81.9139 251° West 134 154 6,100  Climbing Cleveland Center
06:53PM 41.2200 -81.9578 248° West 134 154 6,000  Descending Cleveland Center
06:54PM 41.2089 -82.0044 252° West 133 153 6,100  Climbing Cleveland Center
06:55PM 41.2000 -82.0486 255° West 127 146 6,100  Level Cleveland Center
06:56PM 41.1869 -82.0950 250° West 133 153 6,100 -60 Level Cleveland Center
06:58PM 41.1725 -82.1514 251° West  Level FlightAware Approximate
07:05PM 41.0992 -82.4366 251° West  Level FlightAware Approximate
07:06PM 41.0885 -82.4772 251° West  Level FlightAware Approximate
07:07PM 41.0778 -82.5178 251° West  Level FlightAware Approximate
07:08PM 41.0671 -82.5584 251° West  Level FlightAware Approximate
07:09PM 41.0564 -82.5989 251° West  Level FlightAware Approximate
07:10PM 41.0456 -82.6395 251° West  Level FlightAware Approximate
07:11PM 41.0349 -82.6801 251° West  Level FlightAware Approximate
07:12PM 41.0241 -82.7206 251° West  Level FlightAware Approximate
07:13PM 41.0133 -82.7611 251° West  Level FlightAware Approximate
07:13PM 40.9900 -82.8589 250° West 131 151 6,000  Level Indianapolis Center
07:14PM 41.0025 -82.8016 251° West  Level FlightAware Approximate
07:14PM 40.9769 -82.9025 248° West 128 147 6,000  Level Indianapolis Center
07:15PM 40.9917 -82.8421 251° West  Level FlightAware Approximate
07:15PM 40.9628 -82.9469 247° West 130 150 6,000  Level Indianapolis Center
07:16PM 40.9809 -82.8826 251° West  Level FlightAware Approximate
07:16PM 40.9508 -82.9922 251° West 129 148 6,000  Level Indianapolis Center
07:17PM 40.9701 -82.9231 250° West  Level FlightAware Approximate
07:17PM 40.9356 -83.0381 246° West 134 154 5,900  Level Indianapolis Center
07:18PM 40.9592 -82.9635 250° West  Level FlightAware Approximate
07:18PM 40.9217 -83.0842 248° West 134 154 6,000  Level Indianapolis Center
07:19PM 40.9097 -83.1394 254° West 133 153 6,000  Level Indianapolis Center
07:20PM 40.8969 -83.1861 250° West 134 154 6,100  Climbing Indianapolis Center
07:21PM 40.8872 -83.2339 255° West 134 154 6,000 -60 Descending Indianapolis Center
07:22PM 40.8742 -83.2806 250° West 134 154 6,000  Level Indianapolis Center
07:23PM 40.8622 -83.3272 251° West 133 153 6,000  Level Indianapolis Center
07:24PM 40.8489 -83.3736 249° West 134 154 6,000  Level Indianapolis Center
07:25PM 40.8344 -83.4192 247° West 134 154 6,100  Climbing Indianapolis Center
07:26PM 40.8239 -83.4667 254° West 134 154 6,000 -60 Descending Indianapolis Center
07:27PM 40.8128 -83.5133 253° West 128 147 6,000  Level Indianapolis Center
07:28PM 40.8025 -83.5611 254° West 132 152 6,100  Climbing Indianapolis Center
07:29PM 40.7917 -83.6086 253° West 134 154 6,000 -60 Descending Indianapolis Center
07:31PM 40.7797 -83.6583 252° West 140 161 6,000  Level Indianapolis Center
07:32PM 40.7672 -83.7133 253° West 135 155 6,000  Level Indianapolis Center
07:33PM 40.7564 -83.7606 253° West 133 153 6,000  Level Indianapolis Center
07:34PM 40.7450 -83.8083 253° West 135 155 6,000  Level Indianapolis Center
07:35PM 40.7317 -83.8567 250° West 138 159 6,000  Level Indianapolis Center
07:36PM 40.7208 -83.9031 253° West 134 154 6,000  Level Indianapolis Center
07:37PM 40.7100 -83.9497 253° West 133 153 6,000  Level Indianapolis Center
07:38PM 40.6950 -83.9967 247° West 134 154 6,000  Level Indianapolis Center
07:39PM 40.6797 -84.0419 246° West 135 155 6,000  Level Indianapolis Center
07:40PM 40.6647 -84.0875 247° West 135 155 6,000  Level Indianapolis Center
07:41PM 40.6450 -84.1394 243° Southwest 135 155 6,000  Level Indianapolis Center
07:42PM 40.6281 -84.1839 243° Southwest 135 155 6,000  Level Indianapolis Center
07:43PM 40.6117 -84.2275 244° Southwest 134 154 6,000 -120 Level Indianapolis Center
07:43PM 40.6050 -84.2406 236° Southwest 134 154 5,900  Descending Indianapolis Center
07:44PM 40.5911 -84.2708 239° Southwest 135 155 6,000  Climbing Indianapolis Center
07:45PM 40.5658 -84.3075 228° Southwest 135 155 6,000  Level Indianapolis Center
07:46PM 40.5397 -84.3447 227° Southwest 136 157 6,000  Level Indianapolis Center
07:47PM 40.5142 -84.3839 229° Southwest 137 158 6,000  Level Indianapolis Center
07:48PM 40.4894 -84.4214 229° Southwest 137 158 6,000  Level Indianapolis Center
07:49PM 40.4572 -84.4650 226° Southwest 137 158 6,000  Level Indianapolis Center
07:50PM 40.4308 -84.5078 231° Southwest 141 162 6,000  Level Indianapolis Center
07:51PM 40.4044 -84.5481 229° Southwest 141 162 6,000  Level Indianapolis Center
07:52PM 40.3836 -84.5853 234° Southwest 141 162 6,000  Level Indianapolis Center
07:53PM 40.3703 -84.6353 251° West 143 165 6,000  Level Indianapolis Center
07:54PM 40.3561 -84.6800 247° West 139 160 6,000  Level Indianapolis Center
07:55PM 40.3397 -84.7253 245° Southwest 134 154 6,000 -60 Level Indianapolis Center
07:56PM 40.3250 -84.7753 249° West 132 152 5,900  Descending Indianapolis Center
07:57PM 40.3139 -84.8142 249° West 132 152 6,000  Climbing Indianapolis Center
07:58PM 40.2967 -84.8617 245° Southwest 133 153 6,000  Level Indianapolis Center
07:59PM 40.2822 -84.9089 248° West 135 155 6,000 -60 Level Indianapolis Center
08:00PM 40.2664 -84.9569 247° West 134 154 5,900 -60 Descending Indianapolis Center
08:01PM 40.2539 -84.9978 248° West 135 155 5,900  Level Indianapolis Center
08:02PM 40.2386 -85.0531 250° West 134 154 6,000  Climbing Indianapolis Center
08:03PM 40.2244 -85.0950 246° West 131 151 6,000  Level Indianapolis Center
08:04PM 40.2103 -85.1392 247° West 132 152 6,000  Level Indianapolis Center
08:06PM 40.1864 -85.2122 247° West 164 189 6,000  Level Indianapolis Center
08:07PM 40.1711 -85.2564 246° West 133 153 6,000  Level Indianapolis Center
08:08PM 40.1569 -85.3000 247° West 132 152 6,000  Level Indianapolis Center
08:09PM 40.1417 -85.3439 246° West 131 151 6,000  Level Indianapolis Center
08:10PM 40.1264 -85.3897 246° West 132 152 6,000  Level Indianapolis Center
08:12PM 40.1000 -85.4833 250° West 136 157 6,000 -60 Level Indianapolis TRACON
08:13PM 40.0833 -85.5167 237° Southwest 136 157 5,900  Descending Indianapolis TRACON
08:14PM 40.0667 -85.5667 246° West 135 155 6,000 -360 Climbing Indianapolis TRACON
08:15PM 40.0500 -85.6000 237° Southwest 147 169 5,300 -660 Descending Indianapolis TRACON
08:16PM 40.0333 -85.6500 246° West 155 178 4,800 -480 Descending Indianapolis TRACON
08:17PM 40.0167 -85.7000 246° West 152 175 4,400 -420 Descending Indianapolis TRACON
08:18PM 40.0167 -85.7667 270° West 159 183 4,000 -240 Descending Indianapolis TRACON
08:19PM 40.0000 -85.8167 246° West 145 167 4,000  Level Indianapolis TRACON
08:20PM 40.0000 -85.8667 270° West 141 162 4,100  Climbing Indianapolis TRACON
08:21PM 40.0000 -85.9167 270° West 145 167 4,000  Descending Indianapolis TRACON
08:22PM 40.0000 -85.9833 270° West 148 170 4,100 -240 Climbing Indianapolis TRACON
08:23PM 39.9833 -86.0333 247° West 152 175 3,600 -480 Descending Indianapolis TRACON
08:24PM 39.9667 -86.0667 237° Southwest 154 177 3,300 -360 Descending Indianapolis TRACON